Time;durP1;ratioP1;P1;durP2;ratioP2;P2;SDS_P1;SDS_P2;PMS_P1;PMS_P2;Temp;Humidity;BMP_temperature;BMP_pressure;BME280_temperature;BME280_humidity;BME280_pressure;Samples;Min_cycle;Max_cycle;Signal;HPM_P1;HPM_P2
2021/08/19 00:02:02;;;;;;;5.68;2.72;;;;;;;;;;4997404;28;20064;-79
2021/08/19 00:04:28;;;;;;;3.25;2.88;;;;;;;;;;4998018;28;20042;-79
2021/08/19 00:06:54;;;;;;;3.47;2.67;;;;;;;;;;4997539;28;20038;-79
2021/08/19 00:09:20;;;;;;;5.65;3.88;;;;;;;;;;4997902;28;20568;-79
2021/08/19 00:11:46;;;;;;;4.88;3.35;;;;;;;;;;4997127;28;20053;-79
2021/08/19 00:14:13;;;;;;;6.38;3.88;;;;;;;;;;4997720;28;20077;-79
2021/08/19 00:16:39;;;;;;;3.70;2.80;;;;;;;;;;4997411;28;20114;-79
2021/08/19 00:19:11;;;;;;;5.38;3.15;;;;;;;;;;4997073;28;20046;-79
2021/08/19 00:21:37;;;;;;;4.18;2.95;;;;;;;;;;4995759;28;20125;-79
2021/08/19 00:24:04;;;;;;;3.53;2.80;;;;;;;;;;4997153;28;20050;-79
2021/08/19 00:26:30;;;;;;;4.72;2.95;;;;;;;;;;4996910;28;20042;-80
2021/08/19 00:28:56;;;;;;;2.90;2.40;;;;;;;;;;4996729;28;20116;-79
2021/08/19 00:31:22;;;;;;;3.92;2.45;;;;;;;;;;4997031;28;20053;-80
2021/08/19 00:33:50;;;;;;;5.20;2.92;;;;;;;;;;4997351;28;20121;-79
2021/08/19 00:36:22;;;;;;;3.42;2.42;;;;;;;;;;4997060;28;20042;-80
2021/08/19 00:38:48;;;;;;;2.97;2.58;;;;;;;;;;4997131;28;20078;-80
2021/08/19 00:41:15;;;;;;;4.40;3.03;;;;;;;;;;4996979;28;20644;-79
2021/08/19 00:43:41;;;;;;;5.43;2.80;;;;;;;;;;4996449;28;20516;-79
2021/08/19 00:46:32;;;;;;;4.30;2.92;;;;;;;;;;4996547;28;20058;-80
2021/08/19 00:48:59;;;;;;;5.13;2.72;;;;;;;;;;4997323;28;20130;-79
2021/08/19 00:51:25;;;;;;;4.03;2.60;;;;;;;;;;4996700;28;20042;-80
2021/08/19 00:53:52;;;;;;;3.58;2.65;;;;;;;;;;4997304;28;20042;-79
2021/08/19 00:56:18;;;;;;;3.22;2.47;;;;;;;;;;4996451;28;20093;-79
2021/08/19 00:58:44;;;;;;;4.47;2.70;;;;;;;;;;4995867;28;20046;-79
2021/08/19 01:01:10;;;;;;;2.72;2.45;;;;;;;;;;4996639;28;20068;-79
2021/08/19 01:03:36;;;;;;;4.22;2.38;;;;;;;;;;4996177;28;20034;-79
2021/08/19 01:06:02;;;;;;;3.65;2.85;;;;;;;;;;4996273;28;20509;-79
2021/08/19 01:08:29;;;;;;;4.22;2.72;;;;;;;;;;4995150;28;20045;-79
2021/08/19 01:10:55;;;;;;;5.22;2.90;;;;;;;;;;4996352;28;20043;-79
2021/08/19 01:13:21;;;;;;;2.85;2.65;;;;;;;;;;4996280;28;20038;-79
2021/08/19 01:15:47;;;;;;;3.97;2.42;;;;;;;;;;4996211;28;20042;-79
2021/08/19 01:18:14;;;;;;;4.18;3.05;;;;;;;;;;4996283;28;20100;-79
2021/08/19 01:20:40;;;;;;;3.80;2.30;;;;;;;;;;4994555;28;20046;-79
2021/08/19 01:23:06;;;;;;;4.28;2.80;;;;;;;;;;4995888;28;20050;-79
2021/08/19 01:25:32;;;;;;;4.25;2.92;;;;;;;;;;4996278;28;20038;-79
2021/08/19 01:27:59;;;;;;;3.00;2.70;;;;;;;;;;4996369;28;20049;-79
2021/08/19 01:30:26;;;;;;;2.60;2.35;;;;;;;;;;4995633;28;20038;-79
2021/08/19 01:32:52;;;;;;;5.53;2.95;;;;;;;;;;4995539;28;20462;-79
2021/08/19 01:35:22;;;;;;;3.38;2.35;;;;;;;;;;4996058;28;20049;-79
2021/08/19 01:37:48;;;;;;;2.63;2.35;;;;;;;;;;4995892;28;20035;-79
2021/08/19 01:40:14;;;;;;;3.97;2.67;;;;;;;;;;4995832;28;20481;-79
2021/08/19 01:42:44;;;;;;;4.18;2.80;;;;;;;;;;4995822;28;20030;-79
2021/08/19 01:45:11;;;;;;;3.10;2.78;;;;;;;;;;4986659;28;20142;-79
2021/08/19 01:47:37;;;;;;;2.63;2.42;;;;;;;;;;4976893;28;20104;-79
2021/08/19 01:50:04;;;;;;;3.40;2.78;;;;;;;;;;4976564;28;20077;-79
2021/08/19 01:52:30;;;;;;;3.38;2.80;;;;;;;;;;4976171;28;20405;-79
2021/08/19 01:54:56;;;;;;;3.22;2.50;;;;;;;;;;4976492;28;20043;-79
2021/08/19 01:57:23;;;;;;;4.15;2.95;;;;;;;;;;4976206;28;20049;-79
2021/08/19 01:59:50;;;;;;;4.53;3.08;;;;;;;;;;4976224;28;20042;-79
2021/08/19 02:02:16;;;;;;;5.78;2.95;;;;;;;;;;4976231;28;20054;-79
2021/08/19 02:04:42;;;;;;;5.60;2.92;;;;;;;;;;4976712;28;20552;-79
2021/08/19 02:07:09;;;;;;;3.88;2.83;;;;;;;;;;4976016;28;20105;-79
2021/08/19 02:09:35;;;;;;;5.82;2.75;;;;;;;;;;4976081;28;20043;-79
2021/08/19 02:12:02;;;;;;;3.78;2.80;;;;;;;;;;4975589;28;20046;-79
2021/08/19 02:14:28;;;;;;;3.22;2.67;;;;;;;;;;4976438;28;20042;-79
2021/08/19 02:16:54;;;;;;;4.15;3.10;;;;;;;;;;4974903;28;20610;-79
2021/08/19 02:19:20;;;;;;;4.93;2.88;;;;;;;;;;4975984;28;20042;-79
2021/08/19 02:21:46;;;;;;;3.85;3.00;;;;;;;;;;4976672;28;20122;-79
2021/08/19 02:24:12;;;;;;;3.40;2.65;;;;;;;;;;4976587;28;20111;-79
2021/08/19 02:26:39;;;;;;;2.97;2.72;;;;;;;;;;4976051;28;20047;-79
2021/08/19 02:29:05;;;;;;;3.47;3.17;;;;;;;;;;4976109;28;20049;-79
2021/08/19 02:31:31;;;;;;;3.75;2.58;;;;;;;;;;4975661;28;20080;-79
2021/08/19 02:33:57;;;;;;;3.60;2.90;;;;;;;;;;4976520;28;20067;-79
2021/08/19 02:36:23;;;;;;;3.42;2.85;;;;;;;;;;4975949;28;20039;-79
2021/08/19 02:38:49;;;;;;;6.07;3.08;;;;;;;;;;4975362;28;20039;-79
2021/08/19 02:41:15;;;;;;;5.10;2.97;;;;;;;;;;4975318;28;20514;-80
2021/08/19 02:43:45;;;;;;;3.53;2.88;;;;;;;;;;4975147;28;20527;-79
2021/08/19 02:46:12;;;;;;;3.80;2.95;;;;;;;;;;4993016;28;20050;-80
2021/08/19 02:48:38;;;;;;;3.90;2.88;;;;;;;;;;4994918;28;20041;-79
2021/08/19 02:51:04;;;;;;;3.42;2.88;;;;;;;;;;4994930;28;20100;-80
2021/08/19 02:53:30;;;;;;;3.10;2.72;;;;;;;;;;4995276;28;20053;-79
2021/08/19 02:55:56;;;;;;;3.03;2.50;;;;;;;;;;4994048;28;20088;-79
2021/08/19 02:58:23;;;;;;;3.95;3.05;;;;;;;;;;4995556;28;20093;-79
2021/08/19 03:00:49;;;;;;;3.75;3.15;;;;;;;;;;4995092;28;20046;-79
2021/08/19 03:03:15;;;;;;;3.67;3.20;;;;;;;;;;4995448;28;20042;-79
2021/08/19 03:05:41;;;;;;;4.72;3.40;;;;;;;;;;4995225;28;20052;-79
2021/08/19 03:08:07;;;;;;;3.35;3.05;;;;;;;;;;4995129;28;20081;-79
2021/08/19 03:10:33;;;;;;;3.78;3.00;;;;;;;;;;4995054;28;20129;-80
2021/08/19 03:13:00;;;;;;;3.65;2.95;;;;;;;;;;4994772;28;20061;-79
2021/08/19 03:15:26;;;;;;;4.13;3.08;;;;;;;;;;4995048;28;20089;-79
2021/08/19 03:17:52;;;;;;;4.72;3.22;;;;;;;;;;4995024;28;20030;-79
2021/08/19 03:20:18;;;;;;;3.55;3.25;;;;;;;;;;4994878;28;20393;-79
2021/08/19 03:22:46;;;;;;;3.22;2.88;;;;;;;;;;4997358;28;20090;-79
2021/08/19 03:25:12;;;;;;;5.55;3.28;;;;;;;;;;4998926;28;20046;-79
2021/08/19 03:27:38;;;;;;;3.58;3.28;;;;;;;;;;4997367;28;20066;-79
2021/08/19 03:30:05;;;;;;;6.10;3.75;;;;;;;;;;4998427;28;20046;-79
2021/08/19 03:32:31;;;;;;;4.25;3.38;;;;;;;;;;4998487;28;20104;-79
2021/08/19 03:34:57;;;;;;;4.63;3.60;;;;;;;;;;4998702;28;20045;-79
2021/08/19 03:37:26;;;;;;;6.20;3.05;;;;;;;;;;4998448;28;20045;-79
2021/08/19 03:39:52;;;;;;;4.13;3.28;;;;;;;;;;4998415;28;20049;-79
2021/08/19 03:42:18;;;;;;;5.57;3.40;;;;;;;;;;4997075;28;20038;-79
2021/08/19 03:44:44;;;;;;;4.53;3.53;;;;;;;;;;4998144;28;20054;-79
2021/08/19 03:47:11;;;;;;;5.05;3.17;;;;;;;;;;4998039;28;20038;-79
2021/08/19 03:49:37;;;;;;;6.10;3.90;;;;;;;;;;4996917;28;20436;-79
2021/08/19 03:52:04;;;;;;;3.33;3.03;;;;;;;;;;4998154;28;20046;-79
2021/08/19 03:54:30;;;;;;;4.97;3.50;;;;;;;;;;4998491;28;20042;-79
2021/08/19 03:56:57;;;;;;;3.90;3.50;;;;;;;;;;4998043;28;20034;-80
2021/08/19 03:59:23;;;;;;;3.88;3.38;;;;;;;;;;4996607;28;20042;-79
2021/08/19 04:01:49;;;;;;;5.20;3.55;;;;;;;;;;4997680;28;20034;-79
2021/08/19 04:04:15;;;;;;;4.05;3.28;;;;;;;;;;4998179;28;20128;-79
2021/08/19 04:06:41;;;;;;;5.40;3.38;;;;;;;;;;4997912;28;20066;-79
2021/08/19 04:09:07;;;;;;;4.65;3.28;;;;;;;;;;4998053;28;20046;-79
2021/08/19 04:11:34;;;;;;;4.07;3.60;;;;;;;;;;4997770;28;20053;-79
2021/08/19 04:14:00;;;;;;;4.03;3.30;;;;;;;;;;4997130;28;20050;-79
2021/08/19 04:16:26;;;;;;;7.32;3.40;;;;;;;;;;4997955;28;20034;-80
2021/08/19 04:18:52;;;;;;;4.00;2.92;;;;;;;;;;4997708;28;20038;-80
2021/08/19 04:21:18;;;;;;;5.60;3.40;;;;;;;;;;4997371;28;20101;-79
2021/08/19 04:23:45;;;;;;;5.20;2.85;;;;;;;;;;4997152;28;20430;-79
2021/08/19 04:26:12;;;;;;;6.93;3.47;;;;;;;;;;4997457;28;20088;-78
2021/08/19 04:28:38;;;;;;;4.03;3.20;;;;;;;;;;4997370;28;20035;-79
2021/08/19 04:31:04;;;;;;;4.22;3.17;;;;;;;;;;4996940;28;20132;-79
2021/08/19 04:33:30;;;;;;;3.17;2.88;;;;;;;;;;4995733;28;20048;-79
2021/08/19 04:35:57;;;;;;;4.22;3.00;;;;;;;;;;4997475;28;20043;-79
2021/08/19 04:38:23;;;;;;;4.13;3.17;;;;;;;;;;4997346;28;20125;-79
2021/08/19 04:40:49;;;;;;;4.13;2.83;;;;;;;;;;4997340;28;20500;-79
2021/08/19 04:43:15;;;;;;;3.70;3.35;;;;;;;;;;4997013;28;20390;-79
2021/08/19 04:45:41;;;;;;;3.25;2.88;;;;;;;;;;4997021;28;20057;-79
2021/08/19 04:48:08;;;;;;;3.50;2.85;;;;;;;;;;4997171;28;20037;-79
2021/08/19 04:50:34;;;;;;;4.80;3.10;;;;;;;;;;4996821;28;20054;-79
2021/08/19 04:53:00;;;;;;;4.13;3.40;;;;;;;;;;4996509;28;20042;-79
2021/08/19 04:55:26;;;;;;;3.72;2.85;;;;;;;;;;4996638;28;20050;-79
2021/08/19 04:57:52;;;;;;;3.60;2.90;;;;;;;;;;4996841;28;20043;-79
2021/08/19 05:00:18;;;;;;;4.22;2.90;;;;;;;;;;4996492;28;20034;-79
2021/08/19 05:02:44;;;;;;;4.05;2.85;;;;;;;;;;4996339;28;20072;-79
2021/08/19 05:05:11;;;;;;;4.93;3.00;;;;;;;;;;4996828;28;20049;-79
2021/08/19 05:07:37;;;;;;;5.13;2.70;;;;;;;;;;4996233;28;20072;-79
2021/08/19 05:10:03;;;;;;;3.15;2.85;;;;;;;;;;4995199;28;20045;-79
2021/08/19 05:12:30;;;;;;;6.18;2.80;;;;;;;;;;4996369;28;20050;-80
2021/08/19 05:14:56;;;;;;;8.10;3.20;;;;;;;;;;4996203;28;20100;-79
2021/08/19 05:17:22;;;;;;;3.25;2.55;;;;;;;;;;4996350;28;20046;-79
2021/08/19 05:19:48;;;;;;;3.65;2.75;;;;;;;;;;4996271;28;20513;-79
2021/08/19 05:22:14;;;;;;;4.80;2.80;;;;;;;;;;4996572;28;20050;-79
2021/08/19 05:24:40;;;;;;;4.13;2.88;;;;;;;;;;4996574;28;20042;-80
2021/08/19 05:27:06;;;;;;;3.30;2.35;;;;;;;;;;5002582;28;20037;-79
2021/08/19 05:29:32;;;;;;;2.97;2.42;;;;;;;;;;5015531;28;20034;-79
2021/08/19 05:31:59;;;;;;;3.55;2.70;;;;;;;;;;5016133;28;20046;-79
2021/08/19 05:34:25;;;;;;;3.25;2.83;;;;;;;;;;5016074;28;20064;-79
2021/08/19 05:36:51;;;;;;;3.45;2.80;;;;;;;;;;5015562;28;20042;-79
2021/08/19 05:39:17;;;;;;;2.88;2.35;;;;;;;;;;5014892;28;20049;-79
2021/08/19 05:41:43;;;;;;;2.70;2.45;;;;;;;;;;5015503;28;20074;-79
2021/08/19 05:44:09;;;;;;;5.00;2.83;;;;;;;;;;5013449;28;20053;-79
2021/08/19 05:46:38;;;;;;;3.30;2.35;;;;;;;;;;5014609;28;20037;-79
2021/08/19 05:49:04;;;;;;;2.40;2.20;;;;;;;;;;5015057;28;20037;-78
2021/08/19 05:51:30;;;;;;;3.17;2.10;;;;;;;;;;4998880;28;20097;-77
2021/08/19 05:53:56;;;;;;;2.17;1.98;;;;;;;;;;4994636;28;20057;-79
2021/08/19 05:56:22;;;;;;;4.32;2.10;;;;;;;;;;4990669;28;20045;-77
2021/08/19 05:58:49;;;;;;;2.30;2.10;;;;;;;;;;4994916;28;20046;-78
2021/08/19 06:01:15;;;;;;;3.08;2.15;;;;;;;;;;4987016;28;20069;-78
2021/08/19 06:03:41;;;;;;;2.33;2.13;;;;;;;;;;4993006;28;20042;-78
2021/08/19 06:06:07;;;;;;;2.50;2.03;;;;;;;;;;4992287;28;20041;-77
2021/08/19 06:08:33;;;;;;;2.20;2.00;;;;;;;;;;4994000;28;20065;-77
2021/08/19 06:10:59;;;;;;;2.03;1.83;;;;;;;;;;4994497;28;20539;-77
2021/08/19 06:13:25;;;;;;;2.72;2.05;;;;;;;;;;4994811;28;20052;-79
2021/08/19 06:15:52;;;;;;;3.47;2.20;;;;;;;;;;4994646;28;20039;-77
2021/08/19 06:18:18;;;;;;;2.67;2.47;;;;;;;;;;4993732;28;20049;-78
2021/08/19 06:20:44;;;;;;;2.45;1.90;;;;;;;;;;4993583;28;20049;-78
2021/08/19 06:23:11;;;;;;;3.05;2.28;;;;;;;;;;4993182;28;20046;-79
2021/08/19 06:25:38;;;;;;;4.22;2.45;;;;;;;;;;4992322;28;20257;-78
2021/08/19 06:28:04;;;;;;;2.42;1.85;;;;;;;;;;4994434;28;20133;-78
2021/08/19 06:30:32;;;;;;;3.35;2.08;;;;;;;;;;4994480;28;20047;-78
2021/08/19 06:32:59;;;;;;;4.15;2.13;;;;;;;;;;4993402;28;20108;-78
2021/08/19 06:35:25;;;;;;;2.60;2.40;;;;;;;;;;4994828;28;20121;-78
2021/08/19 06:37:51;;;;;;;2.65;2.45;;;;;;;;;;4994715;28;20046;-78
2021/08/19 06:40:18;;;;;;;3.45;2.60;;;;;;;;;;4994988;28;20061;-79
2021/08/19 06:42:44;;;;;;;4.15;2.10;;;;;;;;;;4994972;28;20504;-78
2021/08/19 06:45:11;;;;;;;5.53;2.33;;;;;;;;;;4992976;28;20413;-77
2021/08/19 06:47:37;;;;;;;2.72;2.50;;;;;;;;;;4993706;28;20046;-77
2021/08/19 06:50:04;;;;;;;3.25;2.85;;;;;;;;;;4994928;28;20037;-78
2021/08/19 06:52:30;;;;;;;3.97;2.35;;;;;;;;;;4994556;28;20540;-80
2021/08/19 06:54:58;;;;;;;2.67;2.25;;;;;;;;;;4994368;28;20549;-76
2021/08/19 06:57:25;;;;;;;4.20;2.60;;;;;;;;;;4996691;28;20121;-77
2021/08/19 06:59:51;;;;;;;4.78;2.42;;;;;;;;;;4997660;28;20095;-77
2021/08/19 07:02:17;;;;;;;2.85;2.53;;;;;;;;;;4998366;28;20125;-77
2021/08/19 07:04:43;;;;;;;3.38;2.58;;;;;;;;;;4998975;28;20042;-77
2021/08/19 07:07:09;;;;;;;5.45;2.42;;;;;;;;;;4998845;28;20042;-77
2021/08/19 07:09:35;;;;;;;3.83;2.40;;;;;;;;;;4998644;28;20073;-77
2021/08/19 07:12:02;;;;;;;2.65;2.45;;;;;;;;;;4999023;28;20081;-77
2021/08/19 07:14:28;;;;;;;3.25;2.30;;;;;;;;;;4998539;28;20070;-77
2021/08/19 07:16:54;;;;;;;4.05;2.55;;;;;;;;;;4998550;28;20078;-77
2021/08/19 07:19:21;;;;;;;2.50;2.30;;;;;;;;;;4998705;28;20046;-77
2021/08/19 07:21:47;;;;;;;4.32;2.53;;;;;;;;;;4998182;28;20049;-77
2021/08/19 07:24:13;;;;;;;3.05;2.30;;;;;;;;;;4998641;28;20066;-77
2021/08/19 07:26:39;;;;;;;4.03;2.40;;;;;;;;;;4998665;28;20042;-77
2021/08/19 07:29:05;;;;;;;6.28;2.83;;;;;;;;;;4997899;28;20069;-77
2021/08/19 07:31:32;;;;;;;2.70;2.50;;;;;;;;;;4996970;28;20050;-77
2021/08/19 07:33:58;;;;;;;3.35;2.25;;;;;;;;;;4997660;28;20046;-77
2021/08/19 07:36:25;;;;;;;3.03;2.65;;;;;;;;;;4998187;28;20039;-77
2021/08/19 07:38:51;;;;;;;7.38;2.80;;;;;;;;;;4997908;28;20070;-77
2021/08/19 07:41:17;;;;;;;3.90;2.55;;;;;;;;;;4998354;28;20493;-77
2021/08/19 07:43:43;;;;;;;3.13;2.40;;;;;;;;;;4997845;28;20045;-77
2021/08/19 07:46:09;;;;;;;3.03;2.25;;;;;;;;;;4997998;28;20144;-77
2021/08/19 07:48:35;;;;;;;3.25;2.63;;;;;;;;;;4997880;28;20045;-77
2021/08/19 07:51:01;;;;;;;3.70;2.60;;;;;;;;;;4997871;28;20050;-77
2021/08/19 07:53:27;;;;;;;3.47;2.50;;;;;;;;;;4998712;28;20504;-77
2021/08/19 07:55:54;;;;;;;4.50;2.72;;;;;;;;;;4998191;28;20043;-77
2021/08/19 07:58:20;;;;;;;6.80;3.20;;;;;;;;;;4998356;28;20046;-77
2021/08/19 08:00:46;;;;;;;7.65;3.25;;;;;;;;;;4997958;28;20050;-77
2021/08/19 08:03:12;;;;;;;4.55;2.63;;;;;;;;;;4998127;28;20038;-77
2021/08/19 08:05:38;;;;;;;3.20;2.67;;;;;;;;;;4996192;28;20085;-77
2021/08/19 08:08:10;;;;;;;7.60;3.20;;;;;;;;;;4997049;28;20042;-77
2021/08/19 08:10:41;;;;;;;6.55;2.75;;;;;;;;;;4997883;28;20042;-77
2021/08/19 08:13:08;;;;;;;3.13;2.78;;;;;;;;;;4996949;28;20366;-77
2021/08/19 08:15:35;;;;;;;2.60;2.40;;;;;;;;;;4997498;28;20062;-77
2021/08/19 08:18:01;;;;;;;5.38;2.90;;;;;;;;;;4996547;28;20101;-77
2021/08/19 08:20:27;;;;;;;3.53;2.55;;;;;;;;;;4997443;28;20038;-77
2021/08/19 08:22:54;;;;;;;3.00;2.70;;;;;;;;;;4997675;28;20496;-77
2021/08/19 08:25:20;;;;;;;3.47;2.80;;;;;;;;;;4997555;28;20121;-77
2021/08/19 08:27:52;;;;;;;5.03;3.33;;;;;;;;;;4997598;28;20042;-77
2021/08/19 08:30:18;;;;;;;3.58;2.63;;;;;;;;;;4997234;28;20057;-77
2021/08/19 08:32:44;;;;;;;3.50;2.67;;;;;;;;;;4997119;28;20138;-77
2021/08/19 08:35:10;;;;;;;2.60;2.40;;;;;;;;;;4997676;28;20350;-77
2021/08/19 08:37:37;;;;;;;3.25;2.55;;;;;;;;;;4996100;28;20547;-77
2021/08/19 08:40:03;;;;;;;2.55;2.33;;;;;;;;;;4997045;28;20038;-77
2021/08/19 08:42:29;;;;;;;3.42;2.25;;;;;;;;;;4997259;28;20068;-77
2021/08/19 08:44:55;;;;;;;3.72;2.42;;;;;;;;;;5001355;28;20144;-77
2021/08/19 08:47:22;;;;;;;3.15;2.70;;;;;;;;;;5014860;28;20045;-78
2021/08/19 08:49:48;;;;;;;3.63;2.83;;;;;;;;;;5016484;28;20045;-77
2021/08/19 08:52:14;;;;;;;8.98;3.20;;;;;;;;;;5015883;28;20056;-78
2021/08/19 08:54:40;;;;;;;6.28;3.90;;;;;;;;;;5014857;28;20598;-78
2021/08/19 08:57:06;;;;;;;3.55;2.72;;;;;;;;;;5015870;28;20072;-77
2021/08/19 08:59:32;;;;;;;3.42;2.88;;;;;;;;;;5015884;28;20117;-77
2021/08/19 09:01:59;;;;;;;4.25;3.35;;;;;;;;;;5016189;28;20042;-77
2021/08/19 09:04:25;;;;;;;4.20;2.67;;;;;;;;;;5016531;28;20049;-77
2021/08/19 09:06:51;;;;;;;3.20;2.25;;;;;;;;;;5015614;28;20046;-77
2021/08/19 09:09:21;;;;;;;3.63;2.58;;;;;;;;;;5016206;28;20041;-77
2021/08/19 09:11:52;;;;;;;3.45;2.50;;;;;;;;;;5015302;28;20045;-77
2021/08/19 09:14:20;;;;;;;8.93;3.28;;;;;;;;;;5014349;28;20097;-77
2021/08/19 09:16:47;;;;;;;2.72;2.25;;;;;;;;;;5014779;28;20041;-77
2021/08/19 09:19:14;;;;;;;3.90;2.58;;;;;;;;;;4992693;28;20142;-77
2021/08/19 09:21:52;;;;;;;2.78;2.53;;;;;;;;;;4985581;28;20035;-77
2021/08/19 09:24:21;;;;;;;3.08;2.55;;;;;;;;;;4994140;28;20081;-77
2021/08/19 09:26:48;;;;;;;2.33;2.13;;;;;;;;;;4995879;28;20030;-77
2021/08/19 09:29:32;;;;;;;3.72;2.47;;;;;;;;;;4994673;28;20047;-77
2021/08/19 09:32:11;;;;;;;2.83;2.20;;;;;;;;;;4994671;28;20112;-77
2021/08/19 09:34:37;;;;;;;4.32;2.47;;;;;;;;;;4995066;28;20127;-77
2021/08/19 09:37:04;;;;;;;2.65;1.90;;;;;;;;;;4994810;28;20117;-77
2021/08/19 09:39:40;;;;;;;2.78;2.20;;;;;;;;;;4994241;28;20038;-77
2021/08/19 09:42:07;;;;;;;2.78;2.50;;;;;;;;;;4994104;28;20500;-77
2021/08/19 09:44:43;;;;;;;2.78;2.13;;;;;;;;;;4993616;28;20173;-77
2021/08/19 09:47:28;;;;;;;4.18;2.83;;;;;;;;;;4995445;28;20489;-77
2021/08/19 09:50:09;;;;;;;2.60;2.38;;;;;;;;;;4994593;28;20156;-77
2021/08/19 09:52:36;;;;;;;4.55;2.53;;;;;;;;;;4993505;28;20065;-77
2021/08/19 09:55:20;;;;;;;4.10;2.88;;;;;;;;;;4995013;28;20046;-77
2021/08/19 09:57:46;;;;;;;3.85;2.80;;;;;;;;;;4994679;28;20039;-77
2021/08/19 10:00:32;;;;;;;4.45;2.53;;;;;;;;;;4995212;28;20053;-77
2021/08/19 10:02:59;;;;;;;4.40;2.60;;;;;;;;;;4993453;28;20030;-77
2021/08/19 10:05:25;;;;;;;5.70;2.80;;;;;;;;;;4993456;28;20053;-77
2021/08/19 10:07:51;;;;;;;4.15;2.58;;;;;;;;;;4994835;28;20121;-77
2021/08/19 10:10:18;;;;;;;2.70;2.40;;;;;;;;;;4994219;28;20039;-77
2021/08/19 10:12:48;;;;;;;2.80;2.50;;;;;;;;;;4994244;28;20050;-77
2021/08/19 10:15:14;;;;;;;2.90;2.47;;;;;;;;;;4993650;28;20057;-77
2021/08/19 10:17:51;;;;;;;3.85;2.72;;;;;;;;;;4994596;28;20112;-76
2021/08/19 10:20:20;;;;;;;4.47;2.92;;;;;;;;;;4994153;28;20100;-77
2021/08/19 10:22:49;;;;;;;3.03;2.72;;;;;;;;;;4994584;28;20057;-77
2021/08/19 10:25:17;;;;;;;4.57;2.85;;;;;;;;;;4993515;28;20042;-77
2021/08/19 10:27:43;;;;;;;3.00;2.60;;;;;;;;;;4992919;28;20049;-77
2021/08/19 10:30:19;;;;;;;4.10;2.65;;;;;;;;;;4992775;28;20054;-77
2021/08/19 10:32:50;;;;;;;3.22;2.50;;;;;;;;;;4993059;28;20051;-77
2021/08/19 10:35:25;;;;;;;4.28;2.53;;;;;;;;;;4993233;28;20077;-78
2021/08/19 10:37:54;;;;;;;5.10;2.95;;;;;;;;;;4993457;28;20046;-77
2021/08/19 10:40:23;;;;;;;4.00;2.53;;;;;;;;;;4992457;28;20552;-77
2021/08/19 10:42:53;;;;;;;4.18;2.65;;;;;;;;;;4992668;28;20069;-77
2021/08/19 10:45:28;;;;;;;2.60;2.25;;;;;;;;;;4993147;28;20062;-77
2021/08/19 10:47:55;;;;;;;3.03;2.50;;;;;;;;;;4991995;28;20041;-77
2021/08/19 10:50:35;;;;;;;3.47;2.85;;;;;;;;;;4991284;28;20046;-77
2021/08/19 10:53:23;;;;;;;3.75;2.50;;;;;;;;;;4993400;28;20516;-77
2021/08/19 10:55:50;;;;;;;4.10;2.85;;;;;;;;;;4993039;28;20042;-77
2021/08/19 10:58:25;;;;;;;4.00;2.22;;;;;;;;;;4992617;28;20046;-77
2021/08/19 11:00:52;;;;;;;3.58;2.75;;;;;;;;;;4994025;28;20045;-77
2021/08/19 11:03:39;;;;;;;3.30;2.60;;;;;;;;;;4994293;28;20120;-77
2021/08/19 11:06:10;;;;;;;3.47;2.97;;;;;;;;;;4993776;28;20117;-78
2021/08/19 11:08:37;;;;;;;3.08;2.65;;;;;;;;;;4994429;28;20047;-77
2021/08/19 11:11:03;;;;;;;4.82;2.60;;;;;;;;;;4993592;28;20177;-75
2021/08/19 11:13:34;;;;;;;3.83;3.00;;;;;;;;;;4992675;28;20101;-75
2021/08/19 11:16:00;;;;;;;3.13;2.60;;;;;;;;;;4994055;28;20054;-75
2021/08/19 11:18:27;;;;;;;3.00;2.70;;;;;;;;;;4993389;28;20497;-76
2021/08/19 11:20:53;;;;;;;4.47;2.80;;;;;;;;;;4993769;28;20085;-75
2021/08/19 11:23:19;;;;;;;3.33;2.70;;;;;;;;;;4993954;28;20125;-75
2021/08/19 11:25:46;;;;;;;2.70;2.50;;;;;;;;;;4993655;28;20034;-76
2021/08/19 11:28:14;;;;;;;4.80;2.50;;;;;;;;;;4991923;28;20133;-75
2021/08/19 11:30:42;;;;;;;3.08;2.58;;;;;;;;;;4994148;28;20046;-74
2021/08/19 11:33:13;;;;;;;3.25;2.30;;;;;;;;;;4994090;28;20038;-73
2021/08/19 11:35:39;;;;;;;3.08;2.72;;;;;;;;;;4993583;28;20077;-73
2021/08/19 11:38:10;;;;;;;3.00;2.67;;;;;;;;;;4993672;28;20074;-73
2021/08/19 11:40:37;;;;;;;4.40;2.40;;;;;;;;;;4993159;28;20030;-73
2021/08/19 11:43:22;;;;;;;3.47;2.42;;;;;;;;;;4994786;28;20104;-73
2021/08/19 11:45:49;;;;;;;3.95;2.55;;;;;;;;;;4996434;28;20529;-73
2021/08/19 11:48:19;;;;;;;2.60;2.40;;;;;;;;;;4996108;28;20041;-73
2021/08/19 11:50:45;;;;;;;3.83;2.78;;;;;;;;;;4987915;28;20045;-73
2021/08/19 11:53:14;;;;;;;2.92;2.63;;;;;;;;;;4993994;28;20038;-73
2021/08/19 11:55:40;;;;;;;4.63;2.40;;;;;;;;;;4993533;28;20050;-73
2021/08/19 11:58:16;;;;;;;3.05;2.70;;;;;;;;;;4988724;28;20161;-73
2021/08/19 12:00:58;;;;;;;2.65;2.45;;;;;;;;;;4992835;28;20089;-73
2021/08/19 12:03:25;;;;;;;3.00;2.55;;;;;;;;;;4988792;28;20042;-73
2021/08/19 12:06:00;;;;;;;2.60;2.40;;;;;;;;;;4990691;28;20042;-73
2021/08/19 12:08:27;;;;;;;2.95;2.33;;;;;;;;;;4989708;28;20501;-73
2021/08/19 12:10:57;;;;;;;2.92;2.22;;;;;;;;;;4989241;28;20043;-73
2021/08/19 12:13:24;;;;;;;3.95;2.25;;;;;;;;;;4988673;28;20038;-73
2021/08/19 12:15:50;;;;;;;2.30;2.10;;;;;;;;;;4991021;28;20074;-73
2021/08/19 12:18:20;;;;;;;3.40;2.47;;;;;;;;;;4990072;28;20592;-73
2021/08/19 12:20:47;;;;;;;2.80;2.60;;;;;;;;;;4984879;28;20559;-73
2021/08/19 12:23:16;;;;;;;2.47;2.28;;;;;;;;;;4989365;28;20297;-73
2021/08/19 12:25:42;;;;;;;2.10;1.98;;;;;;;;;;4982124;28;20121;-73
2021/08/19 12:28:12;;;;;;;2.55;2.30;;;;;;;;;;4989493;28;20077;-73
2021/08/19 12:30:58;;;;;;;3.08;2.20;;;;;;;;;;4990740;28;20129;-73
2021/08/19 12:33:30;;;;;;;2.50;2.30;;;;;;;;;;4989064;28;20042;-73
2021/08/19 12:36:09;;;;;;;4.55;2.20;;;;;;;;;;4988850;28;20070;-73
2021/08/19 12:38:36;;;;;;;2.22;2.03;;;;;;;;;;4988509;28;20501;-73
2021/08/19 12:41:11;;;;;;;3.25;2.13;;;;;;;;;;4989919;28;20045;-73
2021/08/19 12:43:38;;;;;;;5.72;2.45;;;;;;;;;;4988207;28;20050;-73
2021/08/19 12:46:08;;;;;;;2.72;2.00;;;;;;;;;;4987698;28;20051;-73
2021/08/19 12:48:35;;;;;;;2.13;1.90;;;;;;;;;;4995274;28;20133;-73
2021/08/19 12:51:17;;;;;;;2.72;2.40;;;;;;;;;;4995578;28;20072;-73
2021/08/19 12:54:05;;;;;;;2.63;2.28;;;;;;;;;;4995953;28;20039;-73
2021/08/19 12:56:31;;;;;;;3.85;2.47;;;;;;;;;;4996143;28;20038;-73
2021/08/19 12:58:58;;;;;;;2.65;2.33;;;;;;;;;;4995756;28;20046;-73
2021/08/19 13:01:25;;;;;;;6.05;2.47;;;;;;;;;;4990347;28;20073;-73
2021/08/19 13:03:51;;;;;;;2.88;2.40;;;;;;;;;;4990084;28;20123;-73
2021/08/19 13:06:17;;;;;;;2.95;2.30;;;;;;;;;;4994999;28;20501;-73
2021/08/19 13:08:43;;;;;;;2.20;2.00;;;;;;;;;;4996078;28;20042;-73
2021/08/19 13:11:09;;;;;;;5.22;2.40;;;;;;;;;;4996271;28;20501;-73
2021/08/19 13:13:35;;;;;;;2.83;2.42;;;;;;;;;;4995672;28;20049;-73
2021/08/19 13:16:02;;;;;;;4.82;2.30;;;;;;;;;;4995695;28;20047;-73
2021/08/19 13:18:28;;;;;;;4.00;2.53;;;;;;;;;;4991516;28;20057;-73
2021/08/19 13:20:54;;;;;;;3.35;2.20;;;;;;;;;;4987559;28;20050;-73
2021/08/19 13:23:20;;;;;;;3.53;2.47;;;;;;;;;;4992797;28;20046;-73
2021/08/19 13:25:46;;;;;;;2.58;2.17;;;;;;;;;;4996151;28;20519;-73
2021/08/19 13:28:12;;;;;;;2.97;2.40;;;;;;;;;;4995859;28;20129;-73
2021/08/19 13:30:38;;;;;;;4.00;2.30;;;;;;;;;;4995169;28;20528;-73
2021/08/19 13:33:05;;;;;;;3.15;2.00;;;;;;;;;;4995788;28;20129;-73
2021/08/19 13:35:31;;;;;;;4.78;2.35;;;;;;;;;;4995479;28;20046;-73
2021/08/19 13:37:57;;;;;;;2.80;2.10;;;;;;;;;;4987370;28;20066;-73
2021/08/19 13:40:24;;;;;;;2.42;2.22;;;;;;;;;;4992239;28;20039;-73
2021/08/19 13:42:50;;;;;;;2.30;2.10;;;;;;;;;;4991949;28;20042;-73
2021/08/19 13:45:16;;;;;;;2.78;2.25;;;;;;;;;;4995078;28;20080;-73
2021/08/19 13:47:42;;;;;;;5.25;2.33;;;;;;;;;;4995226;28;20041;-73
2021/08/19 13:50:09;;;;;;;2.35;2.15;;;;;;;;;;4994602;28;20042;-73
2021/08/19 13:52:36;;;;;;;2.22;2.00;;;;;;;;;;4995027;28;20405;-73
2021/08/19 13:55:02;;;;;;;3.25;2.30;;;;;;;;;;4994883;28;20042;-73
2021/08/19 13:57:28;;;;;;;4.43;2.30;;;;;;;;;;4994156;28;20046;-73
2021/08/19 13:59:54;;;;;;;4.07;2.47;;;;;;;;;;4987979;28;20047;-73
2021/08/19 14:02:21;;;;;;;2.15;2.00;;;;;;;;;;4987436;28;20045;-73
2021/08/19 14:04:47;;;;;;;4.55;2.67;;;;;;;;;;4994586;28;20061;-73
2021/08/19 14:07:13;;;;;;;5.40;2.45;;;;;;;;;;4993940;28;20046;-74
2021/08/19 14:09:39;;;;;;;2.47;2.28;;;;;;;;;;4994078;28;20515;-73
2021/08/19 14:12:06;;;;;;;2.30;2.10;;;;;;;;;;4994883;28;20501;-73
2021/08/19 14:14:32;;;;;;;2.50;2.30;;;;;;;;;;4971034;28;20050;-73
2021/08/19 14:16:58;;;;;;;2.95;2.58;;;;;;;;;;4991307;28;20049;-74
2021/08/19 14:19:24;;;;;;;3.13;2.00;;;;;;;;;;4991914;28;20042;-74
2021/08/19 14:21:50;;;;;;;2.50;2.30;;;;;;;;;;4987169;28;20073;-73
2021/08/19 14:24:18;;;;;;;4.18;2.67;;;;;;;;;;4988783;28;20046;-73
2021/08/19 14:26:44;;;;;;;2.72;2.50;;;;;;;;;;4989452;28;20044;-73
2021/08/19 14:29:11;;;;;;;2.80;2.60;;;;;;;;;;4982426;28;20166;-73
2021/08/19 14:31:37;;;;;;;2.83;2.55;;;;;;;;;;4989525;28;20050;-73
2021/08/19 14:34:03;;;;;;;3.00;2.63;;;;;;;;;;4991609;28;20125;-73
2021/08/19 14:36:29;;;;;;;2.70;2.50;;;;;;;;;;4983179;28;20051;-73
2021/08/19 14:38:55;;;;;;;2.60;2.40;;;;;;;;;;4994632;28;20389;-73
2021/08/19 14:41:21;;;;;;;3.95;2.35;;;;;;;;;;4994570;28;20065;-73
2021/08/19 14:43:47;;;;;;;3.22;2.25;;;;;;;;;;4994049;28;20030;-73
2021/08/19 14:46:15;;;;;;;2.80;2.20;;;;;;;;;;4983122;28;20091;-73